Time;durP1;ratioP1;P1;durP2;ratioP2;P2;SDS_P1;SDS_P2;PMS_P1;PMS_P2;Temp;Humidity;BMP_temperature;BMP_pressure;BME280_temperature;BME280_humidity;BME280_pressure;Samples;Min_cycle;Max_cycle;Signal;HPM_P1;HPM_P2
2023/10/28 00:02:24;;;;;;;14.27;8.07;;;;;;;;;;5136376;27;20109;-58
2023/10/28 00:04:51;;;;;;;15.85;8.15;;;;;;;;;;5123316;27;20415;-57
2023/10/28 00:07:18;;;;;;;16.38;7.95;;;;;;;;;;5124655;27;20055;-58
2023/10/28 00:09:45;;;;;;;14.43;8.52;;;;;;;;;;5139162;27;20051;-58
2023/10/28 00:12:14;;;;;;;12.95;7.65;;;;;;;;;;5143255;27;20108;-58
2023/10/28 00:14:40;;;;;;;11.02;7.55;;;;;;;;;;5140149;27;20083;-58
2023/10/28 00:17:07;;;;;;;16.23;8.45;;;;;;;;;;5145210;27;20050;-57
2023/10/28 00:19:34;;;;;;;12.18;7.50;;;;;;;;;;5143931;27;20139;-57
2023/10/28 00:22:00;;;;;;;14.75;7.97;;;;;;;;;;5143908;27;20050;-59
2023/10/28 00:24:27;;;;;;;15.35;8.10;;;;;;;;;;5135032;27;20128;-57
2023/10/28 00:26:53;;;;;;;13.75;8.75;;;;;;;;;;5144631;27;20505;-57
2023/10/28 00:29:20;;;;;;;18.02;8.20;;;;;;;;;;5123541;27;20128;-58
2023/10/28 00:31:46;;;;;;;12.57;7.43;;;;;;;;;;5125863;27;20134;-59
2023/10/28 00:34:13;;;;;;;20.35;8.13;;;;;;;;;;5122809;27;20047;-58
2023/10/28 00:36:39;;;;;;;20.20;8.30;;;;;;;;;;5123771;27;20056;-58
2023/10/28 00:39:06;;;;;;;12.82;7.32;;;;;;;;;;5145199;27;20054;-59
2023/10/28 00:41:33;;;;;;;14.27;8.35;;;;;;;;;;5138617;27;20513;-59
2023/10/28 00:43:59;;;;;;;15.02;8.13;;;;;;;;;;5141765;27;20402;-58
2023/10/28 00:46:26;;;;;;;17.65;8.90;;;;;;;;;;5140186;27;20174;-58
2023/10/28 00:48:53;;;;;;;15.85;8.38;;;;;;;;;;5123555;27;20059;-60
2023/10/28 00:51:19;;;;;;;15.35;8.50;;;;;;;;;;5140890;27;20142;-59
2023/10/28 00:53:46;;;;;;;14.40;7.75;;;;;;;;;;5143016;27;20047;-59
2023/10/28 00:56:13;;;;;;;13.05;8.55;;;;;;;;;;5130527;27;20055;-57
2023/10/28 00:58:40;;;;;;;17.73;7.80;;;;;;;;;;5147031;27;20560;-57
2023/10/28 01:01:10;;;;;;;15.75;9.02;;;;;;;;;;5145449;27;20425;-58
2023/10/28 01:03:36;;;;;;;14.82;8.60;;;;;;;;;;5146906;27;20051;-58
2023/10/28 01:06:03;;;;;;;20.58;8.40;;;;;;;;;;5138868;27;20058;-58
2023/10/28 01:08:30;;;;;;;14.38;8.10;;;;;;;;;;5129209;27;20059;-58
2023/10/28 01:11:00;;;;;;;17.77;8.73;;;;;;;;;;5127045;27;20516;-55
2023/10/28 01:13:27;;;;;;;16.98;8.48;;;;;;;;;;5125682;27;20391;-58
2023/10/28 01:15:53;;;;;;;13.02;7.75;;;;;;;;;;5137011;27;20135;-59
2023/10/28 01:18:20;;;;;;;18.83;8.77;;;;;;;;;;5142527;27;20139;-57
2023/10/28 01:20:47;;;;;;;14.00;8.90;;;;;;;;;;5138685;27;20100;-57
2023/10/28 01:23:13;;;;;;;18.67;8.95;;;;;;;;;;5146639;27;20051;-59
2023/10/28 01:25:40;;;;;;;18.83;9.68;;;;;;;;;;5134733;27;20051;-58
2023/10/28 01:28:11;;;;;;;13.40;8.00;;;;;;;;;;5126029;27;20058;-58
2023/10/28 01:30:38;;;;;;;22.02;8.13;;;;;;;;;;5126518;27;20058;-57
2023/10/28 01:33:04;;;;;;;20.15;9.85;;;;;;;;;;5147286;27;20284;-58
2023/10/28 01:35:31;;;;;;;16.45;8.32;;;;;;;;;;5134831;27;20210;-58
2023/10/28 01:37:58;;;;;;;20.25;9.15;;;;;;;;;;5126775;27;20047;-58
2023/10/28 01:40:25;;;;;;;17.13;7.95;;;;;;;;;;5125968;27;20050;-58
2023/10/28 01:42:51;;;;;;;21.17;9.23;;;;;;;;;;5126746;27;20052;-57
2023/10/28 01:45:21;;;;;;;20.27;9.52;;;;;;;;;;5127985;27;20215;-57
2023/10/28 01:47:47;;;;;;;17.13;8.75;;;;;;;;;;5135257;27;20501;-56
2023/10/28 01:50:16;;;;;;;17.90;9.75;;;;;;;;;;5126222;27;20514;-59
2023/10/28 01:52:44;;;;;;;19.08;9.30;;;;;;;;;;5126601;27;20148;-58
2023/10/28 01:55:14;;;;;;;20.10;9.30;;;;;;;;;;5125586;27;20062;-59
2023/10/28 01:57:41;;;;;;;23.38;9.80;;;;;;;;;;5131159;27;20576;-58
2023/10/28 02:00:08;;;;;;;19.00;9.13;;;;;;;;;;5139280;27;20559;-56
2023/10/28 02:02:35;;;;;;;19.88;9.82;;;;;;;;;;5144337;27;20590;-59
2023/10/28 02:05:02;;;;;;;22.40;9.45;;;;;;;;;;5127764;27;20059;-58
2023/10/28 02:07:29;;;;;;;20.15;9.88;;;;;;;;;;5145797;27;20094;-56
2023/10/28 02:09:55;;;;;;;17.20;9.00;;;;;;;;;;5144567;27;20142;-58
2023/10/28 02:12:21;;;;;;;19.50;10.05;;;;;;;;;;5141803;27;20048;-56
2023/10/28 02:14:48;;;;;;;21.20;9.80;;;;;;;;;;5126083;27;20570;-58
2023/10/28 02:17:15;;;;;;;20.13;10.15;;;;;;;;;;5125560;27;20055;-57
2023/10/28 02:19:41;;;;;;;24.90;11.38;;;;;;;;;;5125246;27;20054;-57
2023/10/28 02:22:10;;;;;;;24.38;10.18;;;;;;;;;;5131266;27;20051;-58
2023/10/28 02:24:39;;;;;;;27.00;11.63;;;;;;;;;;5143140;27;20108;-57
2023/10/28 02:27:06;;;;;;;19.55;13.23;;;;;;;;;;5125600;27;20484;-58
2023/10/28 02:29:33;;;;;;;26.58;12.55;;;;;;;;;;5125241;27;20483;-58
2023/10/28 02:31:59;;;;;;;21.83;10.07;;;;;;;;;;5133377;27;20571;-59
2023/10/28 02:34:26;;;;;;;24.10;12.48;;;;;;;;;;5124822;27;20212;-57
2023/10/28 02:36:52;;;;;;;23.77;12.32;;;;;;;;;;5125845;27;20138;-57
2023/10/28 02:39:19;;;;;;;27.25;14.55;;;;;;;;;;5124596;27;20143;-57
2023/10/28 02:41:45;;;;;;;23.83;12.95;;;;;;;;;;5125078;27;20087;-58
2023/10/28 02:44:11;;;;;;;25.95;12.70;;;;;;;;;;5125359;27;20519;-58
2023/10/28 02:46:38;;;;;;;26.27;14.30;;;;;;;;;;5139972;27;20051;-57
2023/10/28 02:49:05;;;;;;;17.15;10.88;;;;;;;;;;5130927;27;20264;-58
2023/10/28 02:51:32;;;;;;;26.10;15.98;;;;;;;;;;5132669;27;20101;-58
2023/10/28 02:53:58;;;;;;;25.35;12.05;;;;;;;;;;5118433;27;20583;-58
2023/10/28 02:56:25;;;;;;;23.73;11.48;;;;;;;;;;5144510;27;20055;-56
2023/10/28 02:58:52;;;;;;;20.45;11.00;;;;;;;;;;5132491;27;20055;-58
2023/10/28 03:01:18;;;;;;;24.20;10.48;;;;;;;;;;5130484;27;20105;-57
2023/10/28 03:03:45;;;;;;;19.00;10.57;;;;;;;;;;5125841;27;20079;-57
2023/10/28 03:06:12;;;;;;;26.58;11.23;;;;;;;;;;5125707;27;20055;-58
2023/10/28 03:08:38;;;;;;;29.55;12.25;;;;;;;;;;5142840;27;20048;-57
2023/10/28 03:11:05;;;;;;;24.40;13.18;;;;;;;;;;5123945;27;20097;-58
2023/10/28 03:13:31;;;;;;;22.42;11.27;;;;;;;;;;5130625;27;20502;-58
2023/10/28 03:15:58;;;;;;;21.88;13.98;;;;;;;;;;5139701;27;20627;-58
2023/10/28 03:18:25;;;;;;;22.63;10.43;;;;;;;;;;5124940;27;20047;-58
2023/10/28 03:20:51;;;;;;;24.30;11.55;;;;;;;;;;5123411;27;20059;-57
2023/10/28 03:23:18;;;;;;;22.83;10.32;;;;;;;;;;5133717;27;20055;-55
2023/10/28 03:25:44;;;;;;;22.42;10.23;;;;;;;;;;5119263;27;20555;-57
2023/10/28 03:28:11;;;;;;;23.40;12.38;;;;;;;;;;5124903;27;20116;-57
2023/10/28 03:30:37;;;;;;;26.33;10.73;;;;;;;;;;5145660;27;20051;-56
2023/10/28 03:33:04;;;;;;;18.85;9.20;;;;;;;;;;5133002;27;20086;-58
2023/10/28 03:35:30;;;;;;;20.08;9.82;;;;;;;;;;5145007;27;20058;-58
2023/10/28 03:37:57;;;;;;;18.60;8.68;;;;;;;;;;5144580;27;20047;-57
2023/10/28 03:40:24;;;;;;;23.20;8.52;;;;;;;;;;5134531;27;20079;-58
2023/10/28 03:42:50;;;;;;;19.38;8.25;;;;;;;;;;5125430;27;20051;-55
2023/10/28 03:45:17;;;;;;;27.08;8.73;;;;;;;;;;5132519;27;20136;-58
2023/10/28 03:47:44;;;;;;;19.10;8.35;;;;;;;;;;5124131;27;20062;-58
2023/10/28 03:50:11;;;;;;;18.45;7.32;;;;;;;;;;5124515;27;20056;-55
2023/10/28 03:52:37;;;;;;;21.70;7.28;;;;;;;;;;5143318;27;20039;-57
2023/10/28 03:55:04;;;;;;;19.05;7.85;;;;;;;;;;5129778;27;20047;-58
2023/10/28 03:57:30;;;;;;;16.08;6.50;;;;;;;;;;5116233;27;20123;-57
2023/10/28 03:59:58;;;;;;;16.77;6.97;;;;;;;;;;5144062;27;20142;-57
2023/10/28 04:02:25;;;;;;;22.27;7.22;;;;;;;;;;5124420;27;20138;-58
2023/10/28 04:04:52;;;;;;;17.95;6.68;;;;;;;;;;5129295;27;20059;-56
2023/10/28 04:07:19;;;;;;;17.80;6.65;;;;;;;;;;5142998;27;20051;-55
2023/10/28 04:09:45;;;;;;;19.08;6.88;;;;;;;;;;5144040;27;20056;-57
2023/10/28 04:12:12;;;;;;;23.75;7.10;;;;;;;;;;5145000;27;20417;-58
2023/10/28 04:14:38;;;;;;;19.42;7.72;;;;;;;;;;5141789;27;20529;-57
2023/10/28 04:17:05;;;;;;;16.33;7.07;;;;;;;;;;5133307;27;20055;-56
2023/10/28 04:19:31;;;;;;;17.88;7.03;;;;;;;;;;5128235;27;20100;-57
2023/10/28 04:21:58;;;;;;;16.40;7.03;;;;;;;;;;5143608;27;20112;-57
2023/10/28 04:24:25;;;;;;;14.13;6.50;;;;;;;;;;5135025;27;20124;-58
2023/10/28 04:26:52;;;;;;;17.58;6.55;;;;;;;;;;5124645;27;20089;-54
2023/10/28 04:29:19;;;;;;;19.17;6.95;;;;;;;;;;5140771;27;20047;-57
2023/10/28 04:31:45;;;;;;;15.88;7.05;;;;;;;;;;5124371;27;20055;-58
2023/10/28 04:34:12;;;;;;;18.02;6.97;;;;;;;;;;5144112;27;20055;-57
2023/10/28 04:36:38;;;;;;;13.20;6.25;;;;;;;;;;5134111;27;20052;-56
2023/10/28 04:39:05;;;;;;;16.50;6.78;;;;;;;;;;5134853;27;20058;-58
2023/10/28 04:41:32;;;;;;;15.60;6.68;;;;;;;;;;5139786;27;20071;-57
2023/10/28 04:44:01;;;;;;;18.00;7.13;;;;;;;;;;5123601;27;20052;-57
2023/10/28 04:46:29;;;;;;;9.05;5.93;;;;;;;;;;5139635;27;20086;-55
2023/10/28 04:48:56;;;;;;;11.70;6.40;;;;;;;;;;5132675;27;20051;-55
2023/10/28 04:51:24;;;;;;;11.57;7.15;;;;;;;;;;5130494;27;20073;-57
2023/10/28 04:53:51;;;;;;;12.05;6.72;;;;;;;;;;5144382;27;20051;-58
2023/10/28 04:56:18;;;;;;;8.70;6.18;;;;;;;;;;5122734;27;20132;-58
2023/10/28 04:58:45;;;;;;;16.23;6.07;;;;;;;;;;5136211;27;20090;-57
2023/10/28 05:01:11;;;;;;;13.00;5.85;;;;;;;;;;5143203;27;20094;-57
2023/10/28 05:03:38;;;;;;;13.50;6.68;;;;;;;;;;5143366;27;20052;-56
2023/10/28 05:06:05;;;;;;;13.88;6.05;;;;;;;;;;5143172;27;20055;-56
2023/10/28 05:08:31;;;;;;;13.27;5.55;;;;;;;;;;5127526;27;20055;-56
2023/10/28 05:10:58;;;;;;;10.00;6.05;;;;;;;;;;5122707;27;20040;-57
2023/10/28 05:13:24;;;;;;;13.05;5.65;;;;;;;;;;5125990;27;20139;-57
2023/10/28 05:15:50;;;;;;;15.93;6.75;;;;;;;;;;5144090;27;20055;-56
2023/10/28 05:18:17;;;;;;;10.40;6.10;;;;;;;;;;5118317;27;20048;-58
2023/10/28 05:20:44;;;;;;;10.70;5.78;;;;;;;;;;5133530;27;20501;-55
2023/10/28 05:23:10;;;;;;;10.18;5.30;;;;;;;;;;5128038;27;20420;-57
2023/10/28 05:25:37;;;;;;;6.53;4.70;;;;;;;;;;5135070;27;20054;-56
2023/10/28 05:28:03;;;;;;;8.82;4.63;;;;;;;;;;5123818;27;20060;-59
2023/10/28 05:30:30;;;;;;;13.25;4.82;;;;;;;;;;5129855;27;20052;-56
2023/10/28 05:32:57;;;;;;;8.40;4.65;;;;;;;;;;5129703;27;20269;-56
2023/10/28 05:35:23;;;;;;;9.80;4.43;;;;;;;;;;5137022;27;20055;-56
2023/10/28 05:37:50;;;;;;;6.15;4.35;;;;;;;;;;5143763;27;20047;-58
2023/10/28 05:40:16;;;;;;;9.13;4.25;;;;;;;;;;5127485;27;20461;-58
2023/10/28 05:42:43;;;;;;;7.60;4.20;;;;;;;;;;5131143;27;20563;-54
2023/10/28 05:45:10;;;;;;;7.97;4.28;;;;;;;;;;5141659;27;20056;-57
2023/10/28 05:47:37;;;;;;;7.68;4.45;;;;;;;;;;5132090;27;20476;-58
2023/10/28 05:50:07;;;;;;;9.02;4.60;;;;;;;;;;5125382;27;20086;-58
2023/10/28 05:52:34;;;;;;;10.10;4.50;;;;;;;;;;5138964;27;20536;-58
2023/10/28 05:55:02;;;;;;;8.30;4.28;;;;;;;;;;5140056;27;20052;-58
2023/10/28 05:57:29;;;;;;;5.57;3.55;;;;;;;;;;5129179;27;20132;-56
2023/10/28 05:59:56;;;;;;;12.80;4.38;;;;;;;;;;5132255;27;20532;-57
2023/10/28 06:02:24;;;;;;;11.50;4.60;;;;;;;;;;5142699;27;20626;-57
2023/10/28 06:04:52;;;;;;;8.73;4.50;;;;;;;;;;5137146;27;20109;-57
2023/10/28 06:07:19;;;;;;;10.15;4.82;;;;;;;;;;5125872;27;20109;-57
2023/10/28 06:09:47;;;;;;;9.18;4.20;;;;;;;;;;5138677;27;20081;-57
2023/10/28 06:12:14;;;;;;;10.30;4.38;;;;;;;;;;5128388;27;20108;-57
2023/10/28 06:14:42;;;;;;;9.75;3.88;;;;;;;;;;5129452;27;20051;-58
2023/10/28 06:17:08;;;;;;;13.10;4.68;;;;;;;;;;5134575;27;20391;-56
2023/10/28 06:19:35;;;;;;;14.00;4.80;;;;;;;;;;5138493;27;20586;-58
2023/10/28 06:22:01;;;;;;;11.85;4.45;;;;;;;;;;5145415;27;20055;-58
2023/10/28 06:24:28;;;;;;;10.52;4.53;;;;;;;;;;5130673;27;20106;-59
2023/10/28 06:26:57;;;;;;;10.60;4.22;;;;;;;;;;5124698;27;20481;-58
2023/10/28 06:29:23;;;;;;;11.00;5.15;;;;;;;;;;5142553;27;20054;-57
2023/10/28 06:31:50;;;;;;;12.23;5.90;;;;;;;;;;5139372;27;20565;-58
2023/10/28 06:34:17;;;;;;;11.38;4.50;;;;;;;;;;5130236;27;20776;-59
2023/10/28 06:36:43;;;;;;;6.68;3.75;;;;;;;;;;5124415;27;20051;-58
2023/10/28 06:39:09;;;;;;;10.85;4.80;;;;;;;;;;5124775;27;20079;-57
2023/10/28 06:41:36;;;;;;;9.88;4.90;;;;;;;;;;5126198;27;20055;-57
2023/10/28 06:44:05;;;;;;;8.88;4.20;;;;;;;;;;5144633;27;20048;-56
2023/10/28 06:46:32;;;;;;;11.65;4.20;;;;;;;;;;5114705;27;20508;-57
2023/10/28 06:48:59;;;;;;;9.52;4.22;;;;;;;;;;5124977;27;20057;-56
2023/10/28 06:51:26;;;;;;;12.07;5.10;;;;;;;;;;5126102;27;20066;-57
2023/10/28 06:53:52;;;;;;;9.30;4.18;;;;;;;;;;5124971;27;20109;-57
2023/10/28 06:56:19;;;;;;;8.52;4.05;;;;;;;;;;5124663;27;20464;-57
2023/10/28 06:58:45;;;;;;;13.63;5.10;;;;;;;;;;5132317;27;20061;-58
2023/10/28 07:01:12;;;;;;;9.60;4.68;;;;;;;;;;5142633;27;20545;-58
2023/10/28 07:03:38;;;;;;;12.23;5.10;;;;;;;;;;5135692;27;20043;-55
2023/10/28 07:06:07;;;;;;;7.63;4.70;;;;;;;;;;5129332;27;20059;-58
2023/10/28 07:08:34;;;;;;;7.25;4.22;;;;;;;;;;5131503;27;20458;-57
2023/10/28 07:11:00;;;;;;;6.82;4.18;;;;;;;;;;5125821;27;20055;-57
2023/10/28 07:13:27;;;;;;;15.60;5.32;;;;;;;;;;5145862;27;20047;-55
2023/10/28 07:16:01;;;;;;;9.95;4.78;;;;;;;;;;5144547;27;20120;-58
2023/10/28 07:18:31;;;;;;;10.27;5.05;;;;;;;;;;5140921;27;20142;-57
2023/10/28 07:21:00;;;;;;;12.88;4.40;;;;;;;;;;5140301;27;20519;-58
2023/10/28 07:23:26;;;;;;;10.18;4.50;;;;;;;;;;5134842;27;20136;-57
2023/10/28 07:25:53;;;;;;;15.52;5.25;;;;;;;;;;5131486;27;20066;-56
2023/10/28 07:28:20;;;;;;;6.72;4.32;;;;;;;;;;5131478;27;20056;-56
2023/10/28 07:30:48;;;;;;;13.80;4.18;;;;;;;;;;5139205;27;20051;-57
2023/10/28 07:33:14;;;;;;;10.25;4.20;;;;;;;;;;5141927;27;20051;-57
2023/10/28 07:35:45;;;;;;;10.15;4.38;;;;;;;;;;5135479;27;20483;-57
2023/10/28 07:38:15;;;;;;;6.40;4.45;;;;;;;;;;5144051;27;20090;-57
2023/10/28 07:40:42;;;;;;;10.07;4.40;;;;;;;;;;5133634;27;20124;-57
2023/10/28 07:43:11;;;;;;;8.05;4.15;;;;;;;;;;5144489;27;20168;-55
2023/10/28 07:45:42;;;;;;;8.38;4.72;;;;;;;;;;5142840;27;20057;-56
2023/10/28 07:48:09;;;;;;;11.45;4.47;;;;;;;;;;5124352;27;20055;-55
2023/10/28 07:50:39;;;;;;;6.30;3.85;;;;;;;;;;5124935;27;20538;-58
2023/10/28 07:53:05;;;;;;;8.48;4.10;;;;;;;;;;5123800;27;20116;-58
2023/10/28 07:55:32;;;;;;;7.63;4.07;;;;;;;;;;5141245;27;20052;-57
2023/10/28 07:57:59;;;;;;;7.28;4.00;;;;;;;;;;5124630;27;20151;-56
2023/10/28 08:00:26;;;;;;;6.28;3.78;;;;;;;;;;5138326;27;20095;-57
2023/10/28 08:02:53;;;;;;;9.02;4.13;;;;;;;;;;5132064;27;20047;-58
2023/10/28 08:05:19;;;;;;;8.07;3.78;;;;;;;;;;5128903;27;20047;-56
2023/10/28 08:07:46;;;;;;;10.02;3.45;;;;;;;;;;5145330;27;20051;-57
2023/10/28 08:10:13;;;;;;;8.27;3.78;;;;;;;;;;5143144;27;20059;-57
2023/10/28 08:12:39;;;;;;;8.18;4.13;;;;;;;;;;5130511;27;20079;-57
2023/10/28 08:15:09;;;;;;;7.30;3.83;;;;;;;;;;5108666;27;20532;-58
2023/10/28 08:17:35;;;;;;;10.57;3.92;;;;;;;;;;5135781;27;20051;-55
2023/10/28 08:20:03;;;;;;;11.23;3.45;;;;;;;;;;5137117;27;20104;-56
2023/10/28 08:22:30;;;;;;;6.15;4.85;;;;;;;;;;5129628;27;20742;-59
2023/10/28 08:24:59;;;;;;;7.82;3.50;;;;;;;;;;5143556;27;20051;-58
2023/10/28 08:27:25;;;;;;;6.85;3.53;;;;;;;;;;5138556;27;20154;-58
2023/10/28 08:29:53;;;;;;;9.35;3.70;;;;;;;;;;5105404;27;20547;-55
2023/10/28 08:32:19;;;;;;;11.23;3.50;;;;;;;;;;5123219;27;20062;-58
2023/10/28 08:34:45;;;;;;;11.48;3.70;;;;;;;;;;5136844;27;20095;-59
2023/10/28 08:37:13;;;;;;;10.32;3.47;;;;;;;;;;5137190;27;20051;-58
2023/10/28 08:39:40;;;;;;;10.00;3.63;;;;;;;;;;5104630;27;20063;-58
2023/10/28 08:42:07;;;;;;;9.93;3.50;;;;;;;;;;5124030;27;20600;-57
2023/10/28 08:44:34;;;;;;;8.27;3.60;;;;;;;;;;5126145;27;20490;-57
2023/10/28 08:47:06;;;;;;;12.43;4.80;;;;;;;;;;5136917;27;20505;-56
2023/10/28 08:49:35;;;;;;;11.82;3.42;;;;;;;;;;5140834;27;20529;-57
2023/10/28 08:52:02;;;;;;;8.27;3.10;;;;;;;;;;5123263;27;20062;-55
2023/10/28 08:54:29;;;;;;;8.60;3.40;;;;;;;;;;5123223;27;20521;-58
2023/10/28 08:56:59;;;;;;;9.25;3.33;;;;;;;;;;5142450;27;20055;-58
2023/10/28 08:59:26;;;;;;;8.45;3.13;;;;;;;;;;5143107;27;20532;-57
2023/10/28 09:01:53;;;;;;;5.97;2.58;;;;;;;;;;5144110;27;20048;-54
2023/10/28 09:04:22;;;;;;;13.30;3.50;;;;;;;;;;5122729;27;20051;-57
2023/10/28 09:06:52;;;;;;;9.27;3.45;;;;;;;;;;5134617;27;20051;-55
2023/10/28 09:09:21;;;;;;;13.27;3.28;;;;;;;;;;5134889;27;20580;-58
2023/10/28 09:11:48;;;;;;;8.85;3.25;;;;;;;;;;5126059;27;20047;-56
2023/10/28 09:14:14;;;;;;;12.18;3.55;;;;;;;;;;5144319;27;20606;-57
2023/10/28 09:16:40;;;;;;;11.77;3.40;;;;;;;;;;5134590;27;20143;-58
2023/10/28 09:19:19;;;;;;;9.27;2.67;;;;;;;;;;5137495;27;20142;-58
2023/10/28 09:21:49;;;;;;;10.65;3.33;;;;;;;;;;5140282;27;20147;-58
2023/10/28 09:24:16;;;;;;;13.77;3.50;;;;;;;;;;5127102;27;20052;-59
2023/10/28 09:26:43;;;;;;;5.88;2.80;;;;;;;;;;5126277;27;20097;-57
2023/10/28 09:29:09;;;;;;;7.75;3.38;;;;;;;;;;5141872;27;20101;-57
2023/10/28 09:31:37;;;;;;;9.80;2.65;;;;;;;;;;5147605;27;20050;-59
2023/10/28 09:34:04;;;;;;;7.00;2.83;;;;;;;;;;5142961;27;20055;-58
2023/10/28 09:36:30;;;;;;;8.25;3.17;;;;;;;;;;5135104;27;20134;-59
2023/10/28 09:38:58;;;;;;;6.60;2.63;;;;;;;;;;5147386;27;20055;-58
2023/10/28 09:41:25;;;;;;;11.00;2.75;;;;;;;;;;5139118;27;20141;-57
2023/10/28 09:43:52;;;;;;;10.48;3.28;;;;;;;;;;5140921;27;20099;-57
2023/10/28 09:46:19;;;;;;;7.43;2.78;;;;;;;;;;5126480;27;20055;-54
2023/10/28 09:48:48;;;;;;;11.18;2.63;;;;;;;;;;5126989;27;20047;-59
2023/10/28 09:51:18;;;;;;;5.78;2.28;;;;;;;;;;5133095;27;20051;-58
2023/10/28 09:53:47;;;;;;;9.68;2.35;;;;;;;;;;5146506;27;20121;-57
2023/10/28 09:56:15;;;;;;;6.95;2.05;;;;;;;;;;5145722;27;20562;-57
2023/10/28 09:58:43;;;;;;;6.70;2.25;;;;;;;;;;5147718;27;20108;-56
2023/10/28 10:01:36;;;;;;;11.68;2.67;;;;;;;;;;5127876;27;20141;-57
2023/10/28 10:04:06;;;;;;;6.97;2.10;;;;;;;;;;5091416;27;20047;-56
2023/10/28 10:06:36;;;;;;;9.00;2.45;;;;;;;;;;5135905;27;20345;-56
2023/10/28 10:09:06;;;;;;;6.85;2.15;;;;;;;;;;5141859;27;20219;-58
2023/10/28 10:11:32;;;;;;;8.85;2.50;;;;;;;;;;5126042;27;20139;-55
2023/10/28 10:14:07;;;;;;;5.80;2.60;;;;;;;;;;5125442;27;20142;-60
2023/10/28 10:16:42;;;;;;;9.00;2.53;;;;;;;;;;5138962;27;20051;-56
2023/10/28 10:19:13;;;;;;;5.63;2.00;;;;;;;;;;5143859;27;20100;-59
2023/10/28 10:21:47;;;;;;;6.70;2.20;;;;;;;;;;5142287;27;20060;-58
2023/10/28 10:24:15;;;;;;;4.63;2.00;;;;;;;;;;5140527;27;20070;-57
2023/10/28 10:26:41;;;;;;;6.78;2.33;;;;;;;;;;5144799;27;20584;-58
2023/10/28 10:29:08;;;;;;;9.38;2.47;;;;;;;;;;5136659;27;20148;-58
2023/10/28 10:31:36;;;;;;;6.75;2.20;;;;;;;;;;5117596;27;20047;-57
2023/10/28 10:34:09;;;;;;;6.35;2.38;;;;;;;;;;5145053;27;20051;-58
2023/10/28 10:36:43;;;;;;;13.10;3.35;;;;;;;;;;5139265;27;20054;-58
2023/10/28 10:39:16;;;;;;;6.63;2.38;;;;;;;;;;5139502;27;20134;-57
2023/10/28 10:41:46;;;;;;;6.60;2.45;;;;;;;;;;5127659;27;20158;-58
2023/10/28 10:44:31;;;;;;;9.90;2.70;;;;;;;;;;5112068;27;20538;-59
2023/10/28 10:46:57;;;;;;;5.95;2.25;;;;;;;;;;5139370;27;20570;-58
2023/10/28 10:49:24;;;;;;;8.68;2.10;;;;;;;;;;5137041;27;20051;-58
2023/10/28 10:51:51;;;;;;;7.65;2.47;;;;;;;;;;5145463;27;20055;-57
2023/10/28 10:54:18;;;;;;;5.88;2.08;;;;;;;;;;5134131;27;20058;-58
2023/10/28 10:56:45;;;;;;;7.72;2.58;;;;;;;;;;5109106;27;20136;-59
2023/10/28 10:59:11;;;;;;;10.25;2.67;;;;;;;;;;5139282;27;20100;-56
2023/10/28 11:01:38;;;;;;;7.95;2.22;;;;;;;;;;5145916;27;20138;-58
2023/10/28 11:04:05;;;;;;;9.27;2.28;;;;;;;;;;5144834;27;20055;-56
2023/10/28 11:06:33;;;;;;;6.85;2.58;;;;;;;;;;5144461;27;20535;-58
2023/10/28 11:09:03;;;;;;;9.35;2.45;;;;;;;;;;5143963;27;20112;-57
2023/10/28 11:11:30;;;;;;;4.93;2.08;;;;;;;;;;5144911;27;20505;-54
2023/10/28 11:13:56;;;;;;;6.63;2.08;;;;;;;;;;5130325;27;20051;-56
2023/10/28 11:16:27;;;;;;;3.88;2.33;;;;;;;;;;5134831;27;20069;-58
2023/10/28 11:18:53;;;;;;;8.10;2.15;;;;;;;;;;5145245;27;20047;-59
2023/10/28 11:21:26;;;;;;;3.83;1.48;;;;;;;;;;5145110;27;20059;-56
2023/10/28 11:23:54;;;;;;;6.60;2.05;;;;;;;;;;5128627;27;20047;-58
2023/10/28 11:26:22;;;;;;;3.50;1.45;;;;;;;;;;5142466;27;20755;-58
2023/10/28 11:28:49;;;;;;;10.70;2.42;;;;;;;;;;5143430;27;20417;-58
2023/10/28 11:31:20;;;;;;;5.55;2.15;;;;;;;;;;5145072;27;20529;-57
2023/10/28 11:33:48;;;;;;;7.57;2.72;;;;;;;;;;5145029;27;20047;-58
2023/10/28 11:36:15;;;;;;;5.90;1.92;;;;;;;;;;5141273;27;20103;-58
2023/10/28 11:38:42;;;;;;;6.90;1.90;;;;;;;;;;5142954;27;20057;-57
2023/10/28 11:41:09;;;;;;;7.53;2.08;;;;;;;;;;5130579;27;20648;-56
2023/10/28 11:43:36;;;;;;;8.43;1.75;;;;;;;;;;5145193;27;20193;-57
2023/10/28 11:46:03;;;;;;;6.60;2.13;;;;;;;;;;5139219;27;20058;-57
2023/10/28 11:48:33;;;;;;;6.70;2.20;;;;;;;;;;5131234;27;20075;-54
2023/10/28 11:51:02;;;;;;;6.72;1.95;;;;;;;;;;5135054;27;20537;-58
2023/10/28 11:53:29;;;;;;;9.10;2.38;;;;;;;;;;5144442;27;20074;-56
2023/10/28 11:55:55;;;;;;;7.47;2.08;;;;;;;;;;5136170;27;20050;-58
2023/10/28 11:58:24;;;;;;;4.93;1.75;;;;;;;;;;5137104;27;20059;-57
2023/10/28 12:00:53;;;;;;;4.35;1.80;;;;;;;;;;5143963;27;20138;-58
2023/10/28 12:03:19;;;;;;;5.30;1.77;;;;;;;;;;5143797;27;20051;-55
2023/10/28 12:05:46;;;;;;;6.55;2.03;;;;;;;;;;5126763;27;20051;-57
2023/10/28 12:08:12;;;;;;;5.93;2.42;;;;;;;;;;5140461;27;20055;-58
2023/10/28 12:10:46;;;;;;;6.53;2.28;;;;;;;;;;5137100;27;20500;-57
2023/10/28 12:13:13;;;;;;;8.98;2.17;;;;;;;;;;5144444;27;20051;-57
2023/10/28 12:15:40;;;;;;;9.18;2.30;;;;;;;;;;5125921;27;20100;-57
2023/10/28 12:18:07;;;;;;;4.68;2.28;;;;;;;;;;5113217;27;20560;-58
2023/10/28 12:20:34;;;;;;;6.75;2.17;;;;;;;;;;5128676;27;20144;-58
2023/10/28 12:23:01;;;;;;;9.20;2.50;;;;;;;;;;5123376;27;20071;-58
2023/10/28 12:25:27;;;;;;;7.03;2.65;;;;;;;;;;5138868;27;20055;-59
2023/10/28 12:27:53;;;;;;;7.22;2.28;;;;;;;;;;5137806;27;20054;-57
2023/10/28 12:30:21;;;;;;;8.05;2.22;;;;;;;;;;5130943;27;20054;-58
2023/10/28 12:32:48;;;;;;;6.80;2.47;;;;;;;;;;5141481;27;20047;-58
2023/10/28 12:35:15;;;;;;;8.18;1.95;;;;;;;;;;5133092;27;20066;-57
2023/10/28 12:37:42;;;;;;;10.90;2.70;;;;;;;;;;5136087;27;20047;-59
2023/10/28 12:40:12;;;;;;;10.48;2.10;;;;;;;;;;5135449;27;20502;-53
2023/10/28 12:42:38;;;;;;;7.45;2.33;;;;;;;;;;5123300;27;20509;-56
2023/10/28 12:45:06;;;;;;;10.60;2.25;;;;;;;;;;5130195;27;20051;-58
2023/10/28 12:47:33;;;;;;;4.93;2.03;;;;;;;;;;5132320;27;20055;-58
2023/10/28 12:50:02;;;;;;;9.18;2.25;;;;;;;;;;5123246;27;20047;-58
2023/10/28 12:52:30;;;;;;;6.55;2.13;;;;;;;;;;5137943;27;20055;-58
2023/10/28 12:55:00;;;;;;;10.35;2.17;;;;;;;;;;5137282;27;20054;-58
2023/10/28 12:57:26;;;;;;;11.52;2.25;;;;;;;;;;5138635;27;20096;-58
2023/10/28 12:59:53;;;;;;;7.25;1.80;;;;;;;;;;5144584;27;20062;-57
2023/10/28 13:02:19;;;;;;;7.72;2.22;;;;;;;;;;5124965;27;20181;-57
2023/10/28 13:04:46;;;;;;;14.90;2.53;;;;;;;;;;5134892;27;20580;-57
2023/10/28 13:07:12;;;;;;;9.95;2.20;;;;;;;;;;5143123;27;20458;-56
2023/10/28 13:09:39;;;;;;;6.90;2.95;;;;;;;;;;5144287;27;20043;-56
2023/10/28 13:12:06;;;;;;;6.82;2.05;;;;;;;;;;5142911;27;20566;-58
2023/10/28 13:14:32;;;;;;;10.35;2.63;;;;;;;;;;5135778;27;20140;-58
2023/10/28 13:16:59;;;;;;;7.05;1.98;;;;;;;;;;5136174;27;20100;-58
2023/10/28 13:19:25;;;;;;;8.70;2.75;;;;;;;;;;5135847;27;20055;-58
2023/10/28 13:21:53;;;;;;;8.43;3.05;;;;;;;;;;5142014;27;20109;-57
2023/10/28 13:24:19;;;;;;;9.43;2.47;;;;;;;;;;5121396;27;20159;-57
2023/10/28 13:26:47;;;;;;;15.40;2.55;;;;;;;;;;5139165;27;20055;-57
2023/10/28 13:29:14;;;;;;;8.90;2.60;;;;;;;;;;5139783;27;20584;-57
2023/10/28 13:31:43;;;;;;;9.07;2.65;;;;;;;;;;5139302;27;20661;-56
2023/10/28 13:34:10;;;;;;;11.55;2.70;;;;;;;;;;5142161;27;20047;-58
2023/10/28 13:36:37;;;;;;;8.65;2.70;;;;;;;;;;5136127;27;20139;-57
2023/10/28 13:39:04;;;;;;;11.75;2.83;;;;;;;;;;5143729;27;20054;-58
2023/10/28 13:41:30;;;;;;;8.60;2.35;;;;;;;;;;5132514;27;20482;-56
2023/10/28 13:43:57;;;;;;;11.00;2.58;;;;;;;;;;5142879;27;20051;-56
2023/10/28 13:46:24;;;;;;;19.20;3.33;;;;;;;;;;5141692;27;20051;-58
2023/10/28 13:48:51;;;;;;;16.17;3.63;;;;;;;;;;5135698;27;20535;-57
2023/10/28 13:51:18;;;;;;;10.65;2.60;;;;;;;;;;5142646;27;20054;-58
2023/10/28 13:53:44;;;;;;;9.48;2.42;;;;;;;;;;5144224;27;20057;-57
2023/10/28 13:56:11;;;;;;;12.57;2.85;;;;;;;;;;5142743;27;20112;-59
2023/10/28 13:58:37;;;;;;;11.10;2.55;;;;;;;;;;5124214;27;20581;-58
2023/10/28 14:01:07;;;;;;;16.77;3.83;;;;;;;;;;5138364;27;20067;-58
2023/10/28 14:03:35;;;;;;;12.95;2.65;;;;;;;;;;5142657;27;20062;-57
2023/10/28 14:06:04;;;;;;;13.93;2.58;;;;;;;;;;5145056;27;20591;-57
2023/10/28 14:08:31;;;;;;;9.48;2.35;;;;;;;;;;5132604;27;20514;-56
2023/10/28 14:10:58;;;;;;;10.25;2.47;;;;;;;;;;5125663;27;20148;-56
2023/10/28 14:13:27;;;;;;;8.38;2.28;;;;;;;;;;5139532;27;20059;-58
2023/10/28 14:15:53;;;;;;;14.70;2.88;;;;;;;;;;5127944;27;20554;-57
2023/10/28 14:18:20;;;;;;;9.93;2.67;;;;;;;;;;5144665;27;20083;-58
2023/10/28 14:20:47;;;;;;;11.90;2.78;;;;;;;;;;5146108;27;20055;-58
2023/10/28 14:23:14;;;;;;;12.55;2.42;;;;;;;;;;5142755;27;20051;-57
2023/10/28 14:25:41;;;;;;;10.98;3.17;;;;;;;;;;5146100;27;20126;-57
2023/10/28 14:28:07;;;;;;;15.20;2.70;;;;;;;;;;5125964;27;20399;-58
2023/10/28 14:30:34;;;;;;;15.70;3.38;;;;;;;;;;5134706;27;20052;-57
2023/10/28 14:33:00;;;;;;;11.10;2.38;;;;;;;;;;5135152;27;20050;-58
2023/10/28 14:35:26;;;;;;;12.50;3.15;;;;;;;;;;5146703;27;20644;-55